createdAt,value
2023-05-12T05:00:54.969Z,1001.96
2023-05-12T05:01:54.945Z,1001.98
2023-05-12T05:02:54.958Z,1002.03
2023-05-12T05:03:54.927Z,1001.89
2023-05-12T05:04:54.822Z,1001.91
2023-05-12T05:05:54.794Z,1002.00
2023-05-12T05:06:54.782Z,1002.00
2023-05-12T05:07:54.788Z,1001.96
2023-05-12T05:08:54.776Z,1001.95
2023-05-12T05:09:54.753Z,1001.88
2023-05-12T05:10:54.774Z,1001.90
2023-05-12T05:11:59.754Z,1001.96
2023-05-12T05:12:54.710Z,1001.91
2023-05-12T05:13:54.712Z,1001.98
2023-05-12T05:14:54.689Z,1001.87
2023-05-12T05:15:54.726Z,1001.90
2023-05-12T05:16:54.711Z,1001.96
2023-05-12T05:17:54.694Z,1001.93
2023-05-12T05:18:54.718Z,1001.95
2023-05-12T05:19:58.971Z,1002.04
2023-05-12T05:20:58.374Z,1002.00
2023-05-12T05:21:54.638Z,1002.00
2023-05-12T05:22:59.642Z,1002.05
2023-05-12T05:23:54.587Z,1001.99
2023-05-12T05:24:54.577Z,1002.02
2023-05-12T05:25:54.593Z,1002.05
2023-05-12T05:26:54.555Z,1002.03
2023-05-12T05:27:54.574Z,1002.08
2023-05-12T05:28:54.534Z,1002.06
2023-05-12T05:29:54.518Z,1002.12
2023-05-12T05:30:54.545Z,1002.06
2023-05-12T05:31:54.543Z,1002.11
2023-05-12T05:32:54.631Z,1002.10
2023-05-12T05:33:59.596Z,1002.11
2023-05-12T05:34:54.475Z,1002.15
2023-05-12T05:35:54.448Z,1002.16
2023-05-12T05:36:54.450Z,1002.07
2023-05-12T05:37:54.444Z,1002.03
2023-05-12T05:38:54.419Z,1002.05
2023-05-12T05:39:54.423Z,1002.12
2023-05-12T05:40:54.775Z,1002.15
2023-05-12T05:41:54.392Z,1002.10
2023-05-12T05:42:54.378Z,1002.14
2023-05-12T05:43:54.359Z,1002.18
2023-05-12T05:44:59.372Z,1002.17
2023-05-12T05:45:54.393Z,1002.19
2023-05-12T05:46:54.343Z,1002.19
2023-05-12T05:47:54.325Z,1002.16
2023-05-12T05:48:54.325Z,1002.23
2023-05-12T05:49:54.290Z,1002.18
2023-05-12T05:50:54.300Z,1002.16
2023-05-12T05:51:54.307Z,1002.20
2023-05-12T05:52:54.257Z,1002.17
2023-05-12T05:53:54.246Z,1002.21
2023-05-12T05:54:54.235Z,1002.19
2023-05-12T05:55:59.256Z,1002.22
2023-05-12T05:56:54.224Z,1002.22
2023-05-12T05:57:54.207Z,1002.21
2023-05-12T05:58:54.188Z,1002.19
2023-05-12T05:59:54.185Z,1002.21
2023-05-12T06:00:54.171Z,1002.21
2023-05-12T06:01:54.192Z,1002.19
2023-05-12T06:02:54.214Z,1002.29
2023-05-12T06:03:54.261Z,1002.28
2023-05-12T06:04:54.157Z,1002.28
2023-05-12T06:05:54.112Z,1002.29
2023-05-12T06:06:59.118Z,1002.34
2023-05-12T06:07:54.082Z,1002.31
2023-05-12T06:08:54.071Z,1002.26
2023-05-12T06:09:54.084Z,1002.30
2023-05-12T06:10:54.052Z,1002.34
2023-05-12T06:11:54.033Z,1002.30
2023-05-12T06:12:54.035Z,1002.34
2023-05-12T06:13:54.012Z,1002.39
2023-05-12T06:14:54.017Z,1002.32
2023-05-12T06:15:54.013Z,1002.41
2023-05-12T06:16:54.067Z,1002.31
2023-05-12T06:17:59.077Z,1002.37
2023-05-12T06:18:53.996Z,1002.40
2023-05-12T06:19:53.954Z,1002.41
2023-05-12T06:20:53.959Z,1002.46
2023-05-12T06:21:53.941Z,1002.41
2023-05-12T06:22:53.915Z,1002.44
2023-05-12T06:23:53.910Z,1002.46
2023-05-12T06:24:53.889Z,1002.41
2023-05-12T06:25:53.880Z,1002.47
2023-05-12T06:26:53.867Z,1002.44
2023-05-12T06:27:53.875Z,1002.46
2023-05-12T06:28:58.914Z,1002.49
2023-05-12T06:29:53.836Z,1002.44
2023-05-12T06:30:53.821Z,1002.44
2023-05-12T06:31:53.837Z,1002.47
2023-05-12T06:32:53.840Z,1002.48
2023-05-12T06:33:53.822Z,1002.52
2023-05-12T06:34:53.797Z,1002.46
2023-05-12T06:35:53.769Z,1002.45
2023-05-12T06:36:55.095Z,1002.48
2023-05-12T06:37:53.760Z,1002.53
2023-05-12T06:38:53.738Z,1002.51
2023-05-12T06:39:58.793Z,1002.53
2023-05-12T06:40:53.723Z,1002.51
2023-05-12T06:41:53.703Z,1002.50
2023-05-12T06:42:53.704Z,1002.59
2023-05-12T06:43:53.683Z,1002.50
2023-05-12T06:44:53.671Z,1002.51
2023-05-12T06:45:53.742Z,1002.53
2023-05-12T06:46:53.688Z,1002.50
2023-05-12T06:47:53.694Z,1002.52
2023-05-12T06:48:53.627Z,1002.58
2023-05-12T06:49:53.617Z,1002.48
2023-05-12T06:50:58.643Z,1002.44
2023-05-12T06:51:53.630Z,1002.47
2023-05-12T06:52:53.649Z,1002.49
2023-05-12T06:53:53.573Z,1002.54
2023-05-12T06:54:53.563Z,1002.56
2023-05-12T06:55:53.558Z,1002.50
2023-05-12T06:56:53.551Z,1002.52
2023-05-12T06:57:53.532Z,1002.48
2023-05-12T06:58:53.517Z,1002.52
2023-05-12T06:59:53.502Z,1002.51
2023-05-12T07:00:53.511Z,1002.56
2023-05-12T07:01:58.591Z,1002.52
2023-05-12T07:02:53.514Z,1002.53
2023-05-12T07:03:53.482Z,1002.53
2023-05-12T07:04:53.448Z,1002.54
2023-05-12T07:05:53.469Z,1002.54
2023-05-12T07:06:53.427Z,1002.55
2023-05-12T07:07:53.408Z,1002.55
2023-05-12T07:08:53.428Z,1002.63
2023-05-12T07:09:53.404Z,1002.60
2023-05-12T07:10:53.390Z,1002.59
2023-05-12T07:11:53.387Z,1002.61
2023-05-12T07:12:58.382Z,1002.64
2023-05-12T07:13:53.343Z,1002.63
2023-05-12T07:14:53.345Z,1002.59
2023-05-12T07:15:53.486Z,1002.64
2023-05-12T07:16:53.303Z,1002.65
2023-05-12T07:17:53.318Z,1002.64
2023-05-12T07:18:53.320Z,1002.62
2023-05-12T07:19:53.279Z,1002.62
2023-05-12T07:20:53.267Z,1002.62
2023-05-12T07:21:53.273Z,1002.62
2023-05-12T07:22:53.237Z,1002.63
2023-05-12T07:23:58.296Z,1002.64
2023-05-12T07:24:53.355Z,1002.63
2023-05-12T07:25:53.200Z,1002.58
2023-05-12T07:26:53.190Z,1002.60
2023-05-12T07:27:53.182Z,1002.62
2023-05-12T07:28:53.175Z,1002.64
2023-05-12T07:29:53.159Z,1002.62
2023-05-12T07:30:53.282Z,1002.63
2023-05-12T07:31:53.212Z,1002.63
2023-05-12T07:32:53.190Z,1002.63
2023-05-12T07:33:53.117Z,1002.66
2023-05-12T07:34:58.143Z,1002.68
2023-05-12T07:35:53.083Z,1002.66
2023-05-12T07:36:53.100Z,1002.60
2023-05-12T07:37:53.065Z,1002.60
2023-05-12T07:38:53.059Z,1002.65
2023-05-12T07:39:53.085Z,1002.63
2023-05-12T07:40:53.056Z,1002.61
2023-05-12T07:41:53.036Z,1002.59
2023-05-12T07:42:53.006Z,1002.65
2023-05-12T07:43:53.005Z,1002.65
2023-05-12T07:44:52.989Z,1002.67
2023-05-12T07:45:57.997Z,1002.61
2023-05-12T07:46:53.039Z,1002.62
2023-05-12T07:47:53.038Z,1002.67
2023-05-12T07:48:52.954Z,1002.63
2023-05-12T07:49:52.924Z,1002.60
2023-05-12T07:50:52.917Z,1002.61
2023-05-12T07:51:52.934Z,1002.59
2023-05-12T07:52:52.942Z,1002.63
2023-05-12T07:53:52.883Z,1002.63
2023-05-12T07:54:52.872Z,1002.58
2023-05-12T07:55:52.937Z,1002.63
2023-05-12T07:56:57.872Z,1002.57
2023-05-12T07:57:52.842Z,1002.57
2023-05-12T07:58:52.848Z,1002.60
2023-05-12T07:59:52.850Z,1002.61
2023-05-12T08:00:52.801Z,1002.67
2023-05-12T08:01:54.046Z,1002.60
2023-05-12T08:02:52.920Z,1002.61
2023-05-12T08:03:52.917Z,1002.59
2023-05-12T08:04:52.776Z,1002.68
2023-05-12T08:05:52.749Z,1002.54
2023-05-12T08:06:52.746Z,1002.59
2023-05-12T08:07:57.747Z,1002.59
2023-05-12T08:08:52.714Z,1002.61
2023-05-12T08:09:52.718Z,1002.57
2023-05-12T08:10:52.713Z,1002.57
2023-05-12T08:11:52.731Z,1002.65
2023-05-12T08:12:52.669Z,1002.57
2023-05-12T08:13:52.647Z,1002.60
2023-05-12T08:14:52.638Z,1002.66
2023-05-12T08:15:52.653Z,1002.67
2023-05-12T08:16:52.758Z,1002.67
2023-05-12T08:17:52.685Z,1002.68
2023-05-12T08:18:57.672Z,1002.69
2023-05-12T08:19:52.579Z,1002.60
2023-05-12T08:20:52.582Z,1002.65
2023-05-12T08:21:52.558Z,1002.65
2023-05-12T08:22:52.592Z,1002.69
2023-05-12T08:23:52.543Z,1002.66
2023-05-12T08:24:52.523Z,1002.66
2023-05-12T08:25:52.559Z,1002.66
2023-05-12T08:26:52.519Z,1002.67
2023-05-12T08:27:52.557Z,1002.69
2023-05-12T08:28:52.548Z,1002.71
2023-05-12T08:29:57.506Z,1002.66
2023-05-12T08:30:52.488Z,1002.63
2023-05-12T08:31:52.442Z,1002.60
2023-05-12T08:32:52.448Z,1002.64
2023-05-12T08:34:08.942Z,1002.61
2023-05-12T08:34:52.462Z,1002.69
2023-05-12T08:35:52.400Z,1002.71
2023-05-12T08:36:52.388Z,1002.63
2023-05-12T08:37:52.371Z,1002.70
2023-05-12T08:38:52.357Z,1002.72
2023-05-12T08:39:52.359Z,1002.73
2023-05-12T08:40:57.389Z,1002.74
2023-05-12T08:41:52.354Z,1002.83
2023-05-12T08:42:52.324Z,1002.78
2023-05-12T08:43:52.369Z,1002.87
2023-05-12T08:44:52.301Z,1002.71
2023-05-12T08:45:52.285Z,1002.73
2023-05-12T08:46:52.401Z,1002.75
2023-05-12T08:47:52.285Z,1002.72
2023-05-12T08:48:52.260Z,1002.70
2023-05-12T08:49:52.676Z,1002.75
2023-05-12T08:50:52.225Z,1002.74
2023-05-12T08:51:58.432Z,1002.71
2023-05-12T08:52:52.211Z,1002.75
2023-05-12T08:53:52.220Z,1002.80
2023-05-12T08:54:56.009Z,1002.78
2023-05-12T08:57:08.281Z,1002.82
2023-05-12T08:57:52.151Z,1002.81
2023-05-12T08:58:52.147Z,1002.81
2023-05-12T08:59:52.176Z,1002.72
2023-05-12T09:00:52.130Z,1002.80
2023-05-12T09:01:52.136Z,1002.78
2023-05-12T09:02:57.135Z,1002.79
2023-05-12T09:03:52.089Z,1002.75
2023-05-12T09:04:52.151Z,1002.71
2023-05-12T09:05:52.068Z,1002.80
2023-05-12T09:06:54.325Z,1002.78
2023-05-12T09:07:52.042Z,1002.81
2023-05-12T09:08:52.021Z,1002.78
2023-05-12T09:09:52.015Z,1002.80
2023-05-12T09:10:52.033Z,1002.76
2023-05-12T09:11:52.012Z,1002.75
2023-05-12T09:12:51.985Z,1002.81
2023-05-12T09:13:56.979Z,1002.80
2023-05-12T09:14:51.965Z,1002.83
2023-05-12T09:15:52.002Z,1002.77
2023-05-12T09:16:52.141Z,1002.82
2023-05-12T09:17:51.951Z,1002.75
2023-05-12T09:18:52.002Z,1002.85
2023-05-12T09:19:51.900Z,1002.84
2023-05-12T09:20:51.890Z,1002.85
2023-05-12T09:21:51.881Z,1002.78
2023-05-12T09:22:51.899Z,1002.80
2023-05-12T09:23:51.848Z,1002.80
2023-05-12T09:24:56.857Z,1002.77
2023-05-12T09:25:51.828Z,1002.72
2023-05-12T09:26:51.863Z,1002.81
2023-05-12T09:27:51.804Z,1002.80
2023-05-12T09:28:51.820Z,1002.77
2023-05-12T09:29:59.052Z,1002.79
2023-05-12T09:30:51.783Z,1002.81
2023-05-12T09:31:52.112Z,1002.75
2023-05-12T09:32:51.781Z,1002.76
2023-05-12T09:33:51.768Z,1002.78
2023-05-12T09:34:51.805Z,1002.75
2023-05-12T09:35:56.746Z,1002.75
2023-05-12T09:36:51.700Z,1002.75
2023-05-12T09:37:51.706Z,1002.75
2023-05-12T09:38:51.680Z,1002.77
2023-05-12T09:39:51.666Z,1002.78
2023-05-12T09:40:51.680Z,1002.80
2023-05-12T09:41:51.655Z,1002.74
2023-05-12T09:42:51.630Z,1002.78
2023-05-12T09:43:51.623Z,1002.70
2023-05-12T09:44:51.618Z,1002.80
2023-05-12T09:45:51.633Z,1002.76
2023-05-12T09:46:56.671Z,1002.76
2023-05-12T09:47:51.585Z,1002.75
2023-05-12T09:48:51.568Z,1002.78
2023-05-12T09:49:51.581Z,1002.71
2023-05-12T09:50:51.548Z,1002.78
2023-05-12T09:51:51.532Z,1002.78
2023-05-12T09:52:51.559Z,1002.76
2023-05-12T09:53:51.509Z,1002.78
2023-05-12T09:54:51.503Z,1002.78
2023-05-12T09:55:51.479Z,1002.83
2023-05-12T09:56:51.468Z,1002.78
2023-05-12T09:57:56.484Z,1002.78
2023-05-12T09:58:51.480Z,1002.72
2023-05-12T09:59:51.447Z,1002.79
2023-05-12T10:01:17.692Z,1002.78
2023-05-12T10:01:52.451Z,1002.82
2023-05-12T10:02:51.537Z,1002.74
2023-05-12T10:03:51.424Z,1002.77
2023-05-12T10:04:51.437Z,1002.72
2023-05-12T10:05:51.371Z,1002.80
2023-05-12T10:06:51.351Z,1002.76
2023-05-12T10:07:51.355Z,1002.75
2023-05-12T10:08:56.369Z,1002.84
2023-05-12T10:09:51.324Z,1002.75
2023-05-12T10:10:51.348Z,1002.73
2023-05-12T10:11:53.489Z,1002.72
2023-05-12T10:12:51.294Z,1002.82
2023-05-12T10:13:51.311Z,1002.77
2023-05-12T10:14:51.264Z,1002.79
2023-05-12T10:15:51.261Z,1002.76
2023-05-12T10:16:51.351Z,1002.76
2023-05-12T10:17:53.774Z,1002.75
2023-05-12T10:18:51.357Z,1002.75
2023-05-12T10:19:56.244Z,1002.84
2023-05-12T10:20:51.199Z,1002.77
2023-05-12T10:21:51.182Z,1002.80
2023-05-12T10:22:51.203Z,1002.68
2023-05-12T10:23:51.171Z,1002.71
2023-05-12T10:24:51.161Z,1002.78
2023-05-12T10:25:51.140Z,1002.75
2023-05-12T10:26:51.143Z,1002.78
2023-05-12T10:27:51.124Z,1002.80
2023-05-12T10:28:51.137Z,1002.76
2023-05-12T10:29:52.102Z,1002.72
2023-05-12T10:30:56.133Z,1002.77
2023-05-12T10:31:51.144Z,1002.79
2023-05-12T10:32:51.096Z,1002.81
2023-05-12T10:33:51.048Z,1002.75
2023-05-12T10:34:51.108Z,1002.75
2023-05-12T10:35:51.028Z,1002.77
2023-05-12T10:36:51.043Z,1002.73
2023-05-12T10:37:51.007Z,1002.75
2023-05-12T10:38:50.990Z,1002.75
2023-05-12T10:39:50.992Z,1002.65
2023-05-12T10:40:51.012Z,1002.67
2023-05-12T10:41:56.016Z,1002.75
2023-05-12T10:42:50.948Z,1002.70
2023-05-12T10:43:50.943Z,1002.75
2023-05-12T10:44:50.928Z,1002.74
2023-05-12T10:45:50.923Z,1002.72
2023-05-12T10:46:50.985Z,1002.67
2023-05-12T10:47:50.960Z,1002.74
2023-05-12T10:48:50.884Z,1002.67
2023-05-12T10:49:50.872Z,1002.68
2023-05-12T10:50:50.885Z,1002.79
2023-05-12T10:51:50.849Z,1002.72
2023-05-12T10:52:55.912Z,1002.76
2023-05-12T10:53:54.325Z,1002.76
2023-05-12T10:54:50.822Z,1002.76
2023-05-12T10:55:51.020Z,1002.74
2023-05-12T10:56:51.045Z,1002.79
2023-05-12T10:57:51.161Z,1002.77
2023-05-12T10:58:51.008Z,1002.70
2023-05-12T10:59:51.575Z,1002.71
2023-05-12T11:00:51.309Z,1002.66
2023-05-12T11:01:51.111Z,1002.70
2023-05-12T11:02:51.446Z,1002.74
2023-05-12T11:03:55.875Z,1002.75
2023-05-12T11:04:50.831Z,1002.77
2023-05-12T11:05:50.777Z,1002.77
2023-05-12T11:06:51.626Z,1002.72
2023-05-12T11:07:50.911Z,1002.65
2023-05-12T11:08:50.892Z,1002.69
2023-05-12T11:09:58.425Z,1002.71
2023-05-12T11:10:51.310Z,1002.66
2023-05-12T11:11:50.631Z,1002.67
2023-05-12T11:12:50.610Z,1002.69
2023-05-12T11:13:50.606Z,1002.64
2023-05-12T11:14:55.623Z,1002.66
2023-05-12T11:15:50.626Z,1002.68
2023-05-12T11:16:50.576Z,1002.68
2023-05-12T11:17:50.585Z,1002.72
2023-05-12T11:18:50.628Z,1002.75
2023-05-12T11:19:50.538Z,1002.68
2023-05-12T11:20:50.517Z,1002.68
2023-05-12T11:21:50.504Z,1002.72
2023-05-12T11:22:50.694Z,1002.72
2023-05-12T11:23:50.491Z,1002.69
2023-05-12T11:24:50.484Z,1002.69
2023-05-12T11:25:55.567Z,1002.67
2023-05-12T11:26:50.450Z,1002.77
2023-05-12T11:27:50.514Z,1002.77
2023-05-12T11:28:50.440Z,1002.78
2023-05-12T11:29:50.420Z,1002.74
2023-05-12T11:30:51.932Z,1002.69
2023-05-12T11:31:50.448Z,1002.64
2023-05-12T11:32:50.417Z,1002.64
2023-05-12T11:33:58.555Z,1002.64
2023-05-12T11:34:50.379Z,1002.60
2023-05-12T11:35:50.351Z,1002.63
2023-05-12T11:36:55.366Z,1002.69
2023-05-12T11:37:50.334Z,1002.66
2023-05-12T11:38:50.350Z,1002.66
2023-05-12T11:39:50.303Z,1002.68
2023-05-12T11:40:50.311Z,1002.68
2023-05-12T11:41:52.990Z,1002.69
2023-05-12T11:42:51.284Z,1002.73
2023-05-12T11:43:50.267Z,1002.65
2023-05-12T11:44:50.268Z,1002.72
2023-05-12T11:45:50.247Z,1002.70
2023-05-12T11:46:50.265Z,1002.68
2023-05-12T11:47:56.884Z,1002.72
2023-05-12T11:48:50.204Z,1002.73
2023-05-12T11:49:50.217Z,1002.75
2023-05-12T11:50:50.175Z,1002.75
2023-05-12T11:51:50.178Z,1002.75
2023-05-12T11:52:50.169Z,1002.71
2023-05-12T11:53:50.147Z,1002.79
2023-05-12T11:54:50.230Z,1002.81
2023-05-12T11:55:50.131Z,1002.80
2023-05-12T11:56:50.123Z,1002.79
2023-05-12T11:57:50.102Z,1002.77
2023-05-12T11:58:55.155Z,1002.79
2023-05-12T11:59:50.078Z,1002.83
2023-05-12T12:00:50.078Z,1002.87
2023-05-12T12:01:50.057Z,1002.87
2023-05-12T12:02:50.087Z,1002.84
2023-05-12T12:03:50.249Z,1002.85
2023-05-12T12:04:50.036Z,1002.87
2023-05-12T12:05:50.035Z,1002.96
2023-05-12T12:06:49.996Z,1002.95
2023-05-12T12:07:49.995Z,1002.93
2023-05-12T12:08:49.973Z,1002.90
2023-05-12T12:09:55.045Z,1002.95
2023-05-12T12:10:49.995Z,1002.89
2023-05-12T12:11:49.948Z,1002.94
2023-05-12T12:12:49.929Z,1002.93
2023-05-12T12:13:49.917Z,1002.98
2023-05-12T12:14:49.916Z,1002.94
2023-05-12T12:15:49.943Z,1002.90
2023-05-12T12:16:49.901Z,1002.96
2023-05-12T12:17:49.949Z,1002.94
2023-05-12T12:18:49.894Z,1002.89
2023-05-12T12:19:49.867Z,1002.92
2023-05-12T12:20:54.865Z,1002.96
2023-05-12T12:21:49.830Z,1002.98
2023-05-12T12:22:49.848Z,1002.93
2023-05-12T12:23:51.658Z,1002.99
2023-05-12T12:24:49.885Z,1002.97
2023-05-12T12:25:49.819Z,1002.90
2023-05-12T12:26:49.784Z,1002.99
2023-05-12T12:27:49.760Z,1002.92
2023-05-12T12:28:49.791Z,1003.01
2023-05-12T12:29:49.737Z,1003.01
2023-05-12T12:30:49.733Z,1002.96
2023-05-12T12:31:54.743Z,1002.95
2023-05-12T12:32:49.817Z,1003.02
2023-05-12T12:33:49.705Z,1002.99
2023-05-12T12:34:49.688Z,1002.98
2023-05-12T12:35:49.673Z,1002.92
2023-05-12T12:36:49.664Z,1002.95
2023-05-12T12:37:49.649Z,1002.99
2023-05-12T12:38:49.647Z,1003.01
2023-05-12T12:39:49.622Z,1002.93
2023-05-12T12:40:49.646Z,1002.91
2023-05-12T12:41:49.623Z,1003.04
2023-05-12T12:42:54.635Z,1002.99
2023-05-12T12:43:49.586Z,1002.95
2023-05-12T12:44:49.568Z,1003.00
2023-05-12T12:45:49.554Z,1002.96
2023-05-12T12:46:49.587Z,1002.92
2023-05-12T12:47:49.562Z,1003.00
2023-05-12T12:48:49.523Z,1003.03
2023-05-12T12:49:49.510Z,1003.11
2023-05-12T12:50:49.500Z,1003.00
2023-05-12T12:51:49.484Z,1003.01
2023-05-12T12:52:49.515Z,1003.05
2023-05-12T12:53:54.484Z,1003.04
2023-05-12T12:54:49.457Z,1003.09
2023-05-12T12:55:49.455Z,1003.01
2023-05-12T12:56:49.461Z,1003.00
2023-05-12T12:57:49.560Z,1003.00
2023-05-12T12:58:49.433Z,1003.02
2023-05-12T12:59:49.395Z,1003.07
2023-05-12T13:00:49.490Z,1003.01
2023-05-12T13:01:49.414Z,1003.00
2023-05-12T13:02:49.457Z,1003.02
2023-05-12T13:03:49.352Z,1003.05
2023-05-12T13:04:54.387Z,1003.02
2023-05-12T13:05:49.326Z,1003.07
2023-05-12T13:06:49.360Z,1003.08
2023-05-12T13:07:49.306Z,1002.94
2023-05-12T13:08:49.296Z,1003.02
2023-05-12T13:09:49.289Z,1003.06
2023-05-12T13:10:49.350Z,1003.03
2023-05-12T13:11:49.291Z,1003.07
2023-05-12T13:12:49.264Z,1003.08
2023-05-12T13:13:49.259Z,1003.15
2023-05-12T13:14:49.229Z,1003.12
2023-05-12T13:15:54.247Z,1003.07
2023-05-12T13:16:49.326Z,1003.12
2023-05-12T13:17:49.218Z,1003.11
2023-05-12T13:18:49.296Z,1003.12
2023-05-12T13:19:49.169Z,1003.12
2023-05-12T13:20:49.172Z,1003.10
2023-05-12T13:21:49.146Z,1003.08
2023-05-12T13:22:49.175Z,1003.10
2023-05-12T13:23:49.122Z,1003.19
2023-05-12T13:24:49.128Z,1003.08
2023-05-12T13:25:49.113Z,1003.15
2023-05-12T13:26:54.109Z,1003.15
2023-05-12T13:27:49.096Z,1003.15
2023-05-12T13:28:49.104Z,1003.13
2023-05-12T13:29:49.143Z,1003.16
2023-05-12T13:30:49.085Z,1003.12
2023-05-12T13:31:49.032Z,1003.19
2023-05-12T13:32:49.063Z,1003.17
2023-05-12T13:33:49.014Z,1003.16
2023-05-12T13:34:49.022Z,1003.19
2023-05-12T13:35:48.981Z,1003.19
2023-05-12T13:36:48.971Z,1003.19
2023-05-12T13:37:53.980Z,1003.18
2023-05-12T13:38:48.959Z,1003.22
2023-05-12T13:39:48.949Z,1003.24
2023-05-12T13:40:48.948Z,1003.22
2023-05-12T13:41:48.915Z,1003.17
2023-05-12T13:42:48.901Z,1003.21
2023-05-12T13:43:48.898Z,1003.22
2023-05-12T13:44:48.881Z,1003.15
2023-05-12T13:45:48.929Z,1003.16
2023-05-12T13:46:48.957Z,1003.19
2023-05-12T13:47:48.890Z,1003.18
2023-05-12T13:48:53.865Z,1003.25
2023-05-12T13:49:48.823Z,1003.11
2023-05-12T13:50:48.817Z,1003.18
2023-05-12T13:51:48.801Z,1003.18
2023-05-12T13:52:48.831Z,1003.11
2023-05-12T13:53:48.784Z,1003.20
2023-05-12T13:54:48.774Z,1003.19
2023-05-12T13:55:48.755Z,1003.25
2023-05-12T13:56:48.745Z,1003.23
2023-05-12T13:57:48.740Z,1003.22
2023-05-12T13:58:48.761Z,1003.22
2023-05-12T13:59:53.746Z,1003.23
2023-05-12T14:00:48.704Z,1003.27
2023-05-12T14:01:48.801Z,1003.24
2023-05-12T14:02:48.711Z,1003.29
2023-05-12T14:03:48.694Z,1003.30
2023-05-12T14:04:48.756Z,1003.32
2023-05-12T14:05:48.647Z,1003.25
2023-05-12T14:06:48.631Z,1003.30
2023-05-12T14:07:48.618Z,1003.32
2023-05-12T14:08:48.604Z,1003.30
2023-05-12T14:09:48.610Z,1003.36
2023-05-12T14:10:53.664Z,1003.39
2023-05-12T14:11:48.579Z,1003.34
2023-05-12T14:12:48.558Z,1003.36
2023-05-12T14:13:48.553Z,1003.33
2023-05-12T14:14:48.545Z,1003.35
2023-05-12T14:15:53.632Z,1003.36
2023-05-12T14:16:48.653Z,1003.38
2023-05-12T14:17:48.619Z,1003.35
2023-05-12T14:18:48.537Z,1003.32
2023-05-12T14:19:48.487Z,1003.32
2023-05-12T14:20:48.471Z,1003.34
2023-05-12T14:21:53.482Z,1003.30
2023-05-12T14:22:48.467Z,1003.31
2023-05-12T14:23:51.044Z,1003.30
2023-05-12T14:24:48.436Z,1003.30
2023-05-12T14:25:48.433Z,1003.33
2023-05-12T14:26:48.457Z,1003.35
2023-05-12T14:27:48.406Z,1003.33
2023-05-12T14:28:48.487Z,1003.36
2023-05-12T14:29:48.367Z,1003.34
2023-05-12T14:30:48.468Z,1003.30
2023-05-12T14:31:48.392Z,1003.34
2023-05-12T14:32:53.484Z,1003.31
2023-05-12T14:33:48.330Z,1003.37
2023-05-12T14:34:48.352Z,1003.33
2023-05-12T14:35:59.185Z,1003.33
2023-05-12T14:36:49.291Z,1003.36
2023-05-12T14:37:48.287Z,1003.33
2023-05-12T14:38:48.282Z,1003.28
2023-05-12T14:39:48.265Z,1003.32
2023-05-12T14:40:48.272Z,1003.34
2023-05-12T14:41:48.282Z,1003.34
2023-05-12T14:42:48.234Z,1003.35
2023-05-12T14:43:53.258Z,1003.30
2023-05-12T14:44:48.198Z,1003.29
2023-05-12T14:45:48.247Z,1003.37
2023-05-12T14:46:48.191Z,1003.29
2023-05-12T14:47:48.232Z,1003.30
2023-05-12T14:48:48.180Z,1003.34
2023-05-12T14:49:48.151Z,1003.33
2023-05-12T14:50:48.144Z,1003.35
2023-05-12T14:51:48.130Z,1003.39
2023-05-12T14:52:48.156Z,1003.33
2023-05-12T14:53:48.098Z,1003.40
2023-05-12T14:54:53.116Z,1003.31
2023-05-12T14:55:48.078Z,1003.33
2023-05-12T14:56:48.079Z,1003.31
2023-05-12T14:57:48.052Z,1003.33
2023-05-12T14:58:48.066Z,1003.35
2023-05-12T14:59:48.045Z,1003.36
2023-05-12T15:00:48.078Z,1003.34
2023-05-12T15:01:48.067Z,1003.30
2023-05-12T15:02:48.067Z,1003.36
2023-05-12T15:03:48.091Z,1003.34
2023-05-12T15:04:48.009Z,1003.38
2023-05-12T15:06:05.576Z,1003.35
2023-05-12T15:06:47.972Z,1003.36
2023-05-12T15:07:47.943Z,1003.38
2023-05-12T15:08:47.941Z,1003.39
2023-05-12T15:09:47.922Z,1003.37
2023-05-12T15:10:47.947Z,1003.40
2023-05-12T15:11:47.913Z,1003.45
2023-05-12T15:12:47.890Z,1003.39
2023-05-12T15:13:47.892Z,1003.42
2023-05-12T15:14:47.875Z,1003.41
2023-05-12T15:15:47.867Z,1003.44
2023-05-12T15:16:52.952Z,1003.41
2023-05-12T15:17:47.902Z,1003.50
2023-05-12T15:18:47.874Z,1003.46
2023-05-12T15:19:47.814Z,1003.52
2023-05-12T15:20:47.833Z,1003.45
2023-05-12T15:21:47.800Z,1003.47
2023-05-12T15:22:47.810Z,1003.49
2023-05-12T15:23:47.764Z,1003.53
2023-05-12T15:24:47.758Z,1003.45
2023-05-12T15:25:47.771Z,1003.46
2023-05-12T15:26:47.729Z,1003.52
2023-05-12T15:27:52.740Z,1003.52
2023-05-12T15:28:47.739Z,1003.55
2023-05-12T15:29:47.706Z,1003.54
2023-05-12T15:30:47.696Z,1003.50
2023-05-12T15:31:47.761Z,1003.48
2023-05-12T15:32:47.756Z,1003.59
2023-05-12T15:33:47.652Z,1003.54
2023-05-12T15:34:47.675Z,1003.55
2023-05-12T15:35:47.638Z,1003.58
2023-05-12T15:36:47.668Z,1003.55
2023-05-12T15:37:47.612Z,1003.57
2023-05-12T15:38:52.631Z,1003.53
2023-05-12T15:39:47.598Z,1003.59
2023-05-12T15:40:47.590Z,1003.55
2023-05-12T15:41:47.595Z,1003.57
2023-05-12T15:42:47.552Z,1003.50
2023-05-12T15:43:47.600Z,1003.51
2023-05-12T15:44:47.576Z,1003.53
2023-05-12T15:45:47.529Z,1003.44
2023-05-12T15:46:47.586Z,1003.55
2023-05-12T15:47:47.534Z,1003.52
2023-05-12T15:48:47.486Z,1003.53
2023-05-12T15:49:52.504Z,1003.48
2023-05-12T15:50:47.463Z,1003.49
2023-05-12T15:51:47.447Z,1003.51
2023-05-12T15:52:47.592Z,1003.51
2023-05-12T15:53:47.470Z,1003.51
2023-05-12T15:54:47.427Z,1003.58
2023-05-12T15:55:47.404Z,1003.55
2023-05-12T15:56:47.407Z,1003.56
2023-05-12T15:57:47.420Z,1003.50
2023-05-12T15:58:47.423Z,1003.57
2023-05-12T15:59:47.364Z,1003.55
2023-05-12T16:00:52.389Z,1003.54
2023-05-12T16:01:47.382Z,1003.50
2023-05-12T16:02:47.467Z,1003.49
2023-05-12T16:03:47.453Z,1003.46
2023-05-12T16:04:47.344Z,1003.50
2023-05-12T16:05:47.345Z,1003.48
2023-05-12T16:06:47.281Z,1003.52
2023-05-12T16:07:47.268Z,1003.53
2023-05-12T16:08:47.293Z,1003.56
2023-05-12T16:09:47.262Z,1003.63
2023-05-12T16:10:47.265Z,1003.63
2023-05-12T16:11:52.244Z,1003.57
2023-05-12T16:12:47.304Z,1003.54
2023-05-12T16:13:47.230Z,1003.65
2023-05-12T16:14:47.192Z,1003.58
2023-05-12T16:15:47.180Z,1003.54
2023-05-12T16:16:47.263Z,1003.62
2023-05-12T16:17:47.189Z,1003.60
2023-05-12T16:18:47.240Z,1003.58
2023-05-12T16:19:47.139Z,1003.61
2023-05-12T16:20:47.127Z,1003.63
2023-05-12T16:21:47.117Z,1003.58
2023-05-12T16:22:52.153Z,1003.57
2023-05-12T16:23:47.087Z,1003.64
2023-05-12T16:24:47.104Z,1003.60
2023-05-12T16:25:47.066Z,1003.66
2023-05-12T16:26:47.054Z,1003.69
2023-05-12T16:27:47.051Z,1003.70
2023-05-12T16:28:47.067Z,1003.71
2023-05-12T16:29:47.018Z,1003.65
2023-05-12T16:30:47.015Z,1003.67
2023-05-12T16:31:47.051Z,1003.71
2023-05-12T16:32:47.056Z,1003.66
2023-05-12T16:33:52.004Z,1003.63
2023-05-12T16:34:47.025Z,1003.67
2023-05-12T16:35:46.954Z,1003.65
2023-05-12T16:36:46.957Z,1003.67
2023-05-12T16:37:46.926Z,1003.66
2023-05-12T16:38:46.917Z,1003.65
2023-05-12T16:39:46.930Z,1003.72
2023-05-12T16:40:46.979Z,1003.68
2023-05-12T16:41:46.896Z,1003.68
2023-05-12T16:42:46.888Z,1003.72
2023-05-12T16:43:46.862Z,1003.66
2023-05-12T16:44:51.872Z,1003.70
2023-05-12T16:45:46.974Z,1003.68
2023-05-12T16:46:47.122Z,1003.63
2023-05-12T16:47:46.845Z,1003.63
2023-05-12T16:48:46.802Z,1003.65
2023-05-12T16:49:46.789Z,1003.67
2023-05-12T16:50:46.791Z,1003.65
2023-05-12T16:51:46.779Z,1003.68
2023-05-12T16:52:46.780Z,1003.68
2023-05-12T16:53:46.744Z,1003.68
2023-05-12T16:54:46.732Z,1003.72
2023-05-12T16:55:51.780Z,1003.71
2023-05-12T16:56:47.458Z,1003.71
2023-05-12T16:57:46.742Z,1003.69
2023-05-12T16:58:46.702Z,1003.71
2023-05-12T16:59:46.681Z,1003.74
2023-05-12T17:00:46.692Z,1003.78
2023-05-12T17:01:46.663Z,1003.74
2023-05-12T17:02:46.764Z,1003.78
2023-05-12T17:03:46.721Z,1003.78
2023-05-12T17:04:46.703Z,1003.81
2023-05-12T17:05:46.624Z,1003.75
2023-05-12T17:06:51.629Z,1003.82